Terminal Aerodrome Forecast
Issued by NWS

Home | Current Version | Previous Version | Text Only | Print | Product List | Glossary On
Versions: 1 2 3 4 5 6 7 8 9 10 11 12
000
FTUS45 KMSO 300533
TAFSMN
TAF
KSMN 300533Z 3006/3106 VRB05KT P6SM VCSH BKN120
     FM300800 20008KT P6SM -SHRA BKN060 OVC080
     FM301200 VRB06KT P6SM VCSH BKN100
     FM302100 34008G16KT P6SM -SHRA BKN080
      AMD LTD TO CLD VIS AND WIND=

USA.gov is the U.S. government's official web portal to all federal, state and local government web resources and services.